createdAt,value
2023-03-19T00:01:05.596Z,14.30
2023-03-19T00:03:33.995Z,13.47
2023-03-19T00:06:02.507Z,14.07
2023-03-19T00:08:32.072Z,13.83
2023-03-19T00:11:00.369Z,14.03
2023-03-19T00:13:28.830Z,14.97
2023-03-19T00:15:56.945Z,14.47
2023-03-19T00:18:25.302Z,13.10
2023-03-19T00:20:53.527Z,13.27
2023-03-19T00:23:21.768Z,12.17
2023-03-19T00:25:51.512Z,13.07
2023-03-19T00:28:19.833Z,11.77
2023-03-19T00:30:48.012Z,11.60
2023-03-19T00:33:16.280Z,12.17
2023-03-19T00:35:44.635Z,11.87
2023-03-19T00:38:12.869Z,12.07
2023-03-19T00:40:41.206Z,11.20
2023-03-19T00:43:10.897Z,10.73
2023-03-19T00:45:39.110Z,10.47
2023-03-19T00:48:07.996Z,10.87
2023-03-19T00:50:36.544Z,11.00
2023-03-19T00:53:04.879Z,11.00
2023-03-19T00:55:33.333Z,10.67
2023-03-19T00:58:01.970Z,10.53
2023-03-19T01:00:31.482Z,9.20
2023-03-19T01:02:59.926Z,11.17
2023-03-19T01:05:28.256Z,11.13
2023-03-19T01:07:56.672Z,10.93
2023-03-19T01:10:26.105Z,10.43
2023-03-19T01:12:54.322Z,9.37
2023-03-19T01:15:25.254Z,9.43
2023-03-19T01:17:54.709Z,8.70
2023-03-19T01:20:24.229Z,8.67
2023-03-19T01:22:52.553Z,10.07
2023-03-19T01:25:21.323Z,8.20
2023-03-19T01:27:49.574Z,9.00
2023-03-19T01:30:17.914Z,9.10
2023-03-19T01:32:46.230Z,9.20
2023-03-19T01:35:16.078Z,8.10
2023-03-19T01:37:44.343Z,8.37
2023-03-19T01:40:14.672Z,8.07
2023-03-19T01:42:58.662Z,8.03
2023-03-19T01:45:34.691Z,7.90
2023-03-19T01:48:03.184Z,8.97
2023-03-19T01:50:41.005Z,7.73
2023-03-19T01:53:12.542Z,9.00
2023-03-19T01:55:42.688Z,9.57
2023-03-19T01:58:11.801Z,8.80
2023-03-19T02:00:40.229Z,8.00
2023-03-19T02:03:08.487Z,8.00
2023-03-19T02:05:39.141Z,7.40
2023-03-19T02:08:10.569Z,8.03
2023-03-19T02:10:39.183Z,8.30
2023-03-19T02:13:07.507Z,8.23
2023-03-19T02:15:36.056Z,8.50
2023-03-19T02:18:04.314Z,8.30
2023-03-19T02:20:37.436Z,8.47
2023-03-19T02:23:15.574Z,7.80
2023-03-19T02:25:56.282Z,8.07
2023-03-19T02:28:25.543Z,6.80
2023-03-19T02:30:54.194Z,6.97
2023-03-19T02:33:22.462Z,7.53
2023-03-19T02:35:53.509Z,7.27
2023-03-19T02:38:22.785Z,7.70
2023-03-19T02:40:56.446Z,6.83
2023-03-19T02:43:24.789Z,7.60
2023-03-19T02:45:53.705Z,6.07
2023-03-19T02:48:21.872Z,7.43
2023-03-19T02:50:50.060Z,6.77
2023-03-19T02:53:18.521Z,6.93
2023-03-19T02:55:47.098Z,7.27
2023-03-19T02:58:16.840Z,5.93
2023-03-19T03:00:45.329Z,5.87
2023-03-19T03:03:14.156Z,6.40
2023-03-19T03:05:42.416Z,6.33
2023-03-19T03:08:10.666Z,6.30
2023-03-19T03:10:38.885Z,6.27
2023-03-19T03:13:07.196Z,6.43
2023-03-19T03:15:36.850Z,6.77
2023-03-19T03:18:06.072Z,6.03
2023-03-19T03:20:34.747Z,6.13
2023-03-19T03:23:03.175Z,6.37
2023-03-19T03:25:31.821Z,6.43
2023-03-19T03:28:00.035Z,6.67
2023-03-19T03:30:28.208Z,6.47
2023-03-19T03:32:58.308Z,6.67
2023-03-19T03:35:27.389Z,6.93
2023-03-19T03:37:55.584Z,6.13
2023-03-19T03:40:23.811Z,6.20
2023-03-19T03:42:52.330Z,6.27
2023-03-19T03:45:20.648Z,5.97
2023-03-19T03:47:48.875Z,6.17
2023-03-19T03:50:18.581Z,5.63
2023-03-19T03:52:47.937Z,5.50
2023-03-19T03:55:16.181Z,5.97
2023-03-19T03:57:44.326Z,6.00
2023-03-19T04:00:14.321Z,6.17
2023-03-19T04:02:42.493Z,6.57
2023-03-19T04:05:10.990Z,7.20
2023-03-19T04:07:41.218Z,6.00
2023-03-19T04:10:10.605Z,6.03
2023-03-19T04:12:39.968Z,5.47
2023-03-19T04:15:12.155Z,5.77
2023-03-19T04:17:41.882Z,6.17
2023-03-19T04:20:11.679Z,6.07
2023-03-19T04:22:41.704Z,5.60
2023-03-19T04:25:10.698Z,5.60
2023-03-19T04:27:38.961Z,5.77
2023-03-19T04:30:07.897Z,5.53
2023-03-19T04:32:37.030Z,5.13
2023-03-19T04:35:05.848Z,5.07
2023-03-19T04:37:34.085Z,6.13
2023-03-19T04:40:03.766Z,5.70
2023-03-19T04:42:31.994Z,5.60
2023-03-19T04:45:00.258Z,5.90
2023-03-19T04:47:28.423Z,5.03
2023-03-19T04:49:56.633Z,5.13
2023-03-19T04:52:24.990Z,5.27
2023-03-19T04:54:53.276Z,5.00
2023-03-19T04:57:23.281Z,4.80
2023-03-19T04:59:51.561Z,4.87
2023-03-19T05:02:19.785Z,4.70
2023-03-19T05:04:48.037Z,5.17
2023-03-19T05:07:16.414Z,4.60
2023-03-19T05:09:46.320Z,4.57
2023-03-19T05:12:15.220Z,4.27
2023-03-19T05:14:44.834Z,4.10
2023-03-19T05:17:15.263Z,4.27
2023-03-19T05:19:43.501Z,5.07
2023-03-19T05:22:11.782Z,4.93
2023-03-19T05:24:40.053Z,4.10
2023-03-19T05:27:08.282Z,3.90
2023-03-19T05:29:38.707Z,4.20
2023-03-19T05:32:11.275Z,3.90
2023-03-19T05:34:39.650Z,4.00
2023-03-19T05:37:08.622Z,4.77
2023-03-19T05:39:36.909Z,3.97
2023-03-19T05:42:05.399Z,4.20
2023-03-19T05:44:33.676Z,3.90
2023-03-19T05:47:01.827Z,3.93
2023-03-19T05:49:31.412Z,4.37
2023-03-19T05:52:00.154Z,3.70
2023-03-19T05:54:28.295Z,3.93
2023-03-19T05:56:56.529Z,4.03
2023-03-19T05:59:24.751Z,4.17
2023-03-19T06:01:53.040Z,5.00
2023-03-19T06:04:21.441Z,4.40
2023-03-19T06:06:51.089Z,4.00
2023-03-19T06:09:19.471Z,4.50
2023-03-19T06:11:47.726Z,4.00
2023-03-19T06:14:16.140Z,4.03
2023-03-19T06:16:44.442Z,4.27
2023-03-19T06:19:12.630Z,4.77
2023-03-19T06:21:40.805Z,4.73
2023-03-19T06:24:10.720Z,5.67
2023-03-19T06:26:39.410Z,4.40
2023-03-19T06:29:07.723Z,4.40
2023-03-19T06:31:36.382Z,4.77
2023-03-19T06:34:04.642Z,4.87
2023-03-19T06:36:32.912Z,5.13
2023-03-19T06:39:01.141Z,4.87
2023-03-19T06:41:30.859Z,4.40
2023-03-19T06:43:59.250Z,4.27
2023-03-19T06:46:27.559Z,4.40
2023-03-19T06:48:55.804Z,4.70
2023-03-19T06:51:23.930Z,4.40
2023-03-19T06:53:52.138Z,4.37
2023-03-19T06:56:21.076Z,4.53
2023-03-19T06:58:50.638Z,4.10
2023-03-19T07:01:19.111Z,4.83
2023-03-19T07:03:47.354Z,4.23
2023-03-19T07:06:15.510Z,5.40
2023-03-19T07:08:46.353Z,4.97
2023-03-19T07:11:16.597Z,4.23
2023-03-19T07:13:44.835Z,4.50
2023-03-19T07:16:14.464Z,4.83
2023-03-19T07:18:42.718Z,4.50
2023-03-19T07:21:10.843Z,6.03
2023-03-19T07:23:40.295Z,4.33
2023-03-19T07:26:08.538Z,4.60
2023-03-19T07:28:36.677Z,4.13
2023-03-19T07:31:05.089Z,4.37
2023-03-19T07:33:34.771Z,4.10
2023-03-19T07:36:03.151Z,4.53
2023-03-19T07:38:31.498Z,5.10
2023-03-19T07:41:02.777Z,5.30
2023-03-19T07:43:31.680Z,3.97
2023-03-19T07:46:00.847Z,4.00
2023-03-19T07:48:29.117Z,3.53
2023-03-19T07:50:58.757Z,3.40
2023-03-19T07:53:27.257Z,3.03
2023-03-19T07:55:55.509Z,3.60
2023-03-19T07:58:23.650Z,3.80
2023-03-19T08:00:51.876Z,5.67
2023-03-19T08:03:20.132Z,5.23
2023-03-19T08:05:49.986Z,5.20
2023-03-19T08:08:19.716Z,5.80
2023-03-19T08:10:50.742Z,4.63
2023-03-19T08:13:19.158Z,6.47
2023-03-19T08:15:47.433Z,5.73
2023-03-19T08:18:15.652Z,70.33
2023-03-19T08:20:45.197Z,11.07
2023-03-19T08:23:13.387Z,6.27
2023-03-19T08:25:43.308Z,5.07
2023-03-19T08:28:11.994Z,5.10
2023-03-19T08:30:40.959Z,4.60
2023-03-19T08:33:09.170Z,4.33
2023-03-19T08:35:37.511Z,4.70
2023-03-19T08:38:05.711Z,4.73
2023-03-19T08:40:34.496Z,4.80
2023-03-19T08:43:04.490Z,5.13
2023-03-19T08:45:32.762Z,5.53
2023-03-19T08:48:00.938Z,4.93
2023-03-19T08:50:29.177Z,4.63
2023-03-19T08:52:57.736Z,4.67
2023-03-19T08:55:25.901Z,5.40
2023-03-19T08:57:54.202Z,5.07
2023-03-19T09:00:24.121Z,4.90
2023-03-19T09:02:52.236Z,5.13
2023-03-19T09:05:22.516Z,4.33
2023-03-19T09:07:53.124Z,4.73
2023-03-19T09:10:21.438Z,4.17
2023-03-19T09:12:49.539Z,4.07
2023-03-19T09:15:17.778Z,3.97
2023-03-19T09:17:47.370Z,4.40
2023-03-19T09:20:15.678Z,3.70
2023-03-19T09:22:43.849Z,3.63
2023-03-19T09:25:12.635Z,4.00
2023-03-19T09:27:40.759Z,4.47
2023-03-19T09:30:10.566Z,4.23
2023-03-19T09:32:39.102Z,3.93
2023-03-19T09:35:09.821Z,4.30
2023-03-19T09:37:38.035Z,5.20
2023-03-19T09:40:08.179Z,4.63
2023-03-19T09:42:51.595Z,4.70
2023-03-19T09:45:20.978Z,4.20
2023-03-19T09:47:52.972Z,4.27
2023-03-19T09:50:25.402Z,4.53
2023-03-19T09:53:02.116Z,4.53
2023-03-19T09:55:39.693Z,4.80
2023-03-19T09:58:15.495Z,3.87
2023-03-19T10:00:45.447Z,4.27
2023-03-19T10:03:39.094Z,4.80
2023-03-19T10:06:32.584Z,4.63
2023-03-19T10:09:19.753Z,4.03
2023-03-19T10:12:01.402Z,4.47
2023-03-19T10:14:47.176Z,3.97
2023-03-19T10:17:20.712Z,5.13
2023-03-19T10:19:54.022Z,5.17
2023-03-19T10:22:28.250Z,4.90
2023-03-19T10:24:58.957Z,9.10
2023-03-19T10:27:29.757Z,4.37
2023-03-19T10:29:58.202Z,4.93
2023-03-19T10:32:38.700Z,4.37
2023-03-19T10:35:17.557Z,4.90
2023-03-19T10:37:47.114Z,4.87
2023-03-19T10:40:22.699Z,5.23
2023-03-19T10:43:07.365Z,12.03
2023-03-19T10:45:39.009Z,7.00
2023-03-19T10:48:13.087Z,5.00
2023-03-19T10:50:50.826Z,5.17
2023-03-19T10:53:35.709Z,4.83
2023-03-19T10:56:06.053Z,4.47
2023-03-19T10:58:36.569Z,9.27
2023-03-19T11:01:08.332Z,5.60
2023-03-19T11:03:38.977Z,5.60
2023-03-19T11:06:18.219Z,6.40
2023-03-19T11:08:56.385Z,6.13
2023-03-19T11:11:33.670Z,7.00
2023-03-19T11:14:08.741Z,5.87
2023-03-19T11:16:49.761Z,6.70
2023-03-19T11:19:21.541Z,6.80
2023-03-19T11:22:02.725Z,8.17
2023-03-19T11:24:35.295Z,6.03
2023-03-19T11:27:04.534Z,6.17
2023-03-19T11:29:32.995Z,6.20
2023-03-19T11:32:21.549Z,5.47
2023-03-19T11:34:57.394Z,5.73
2023-03-19T11:37:32.697Z,5.10
2023-03-19T11:40:13.214Z,5.63
2023-03-19T11:42:54.960Z,5.80
2023-03-19T11:45:32.117Z,5.40
2023-03-19T11:48:20.553Z,6.50
2023-03-19T11:50:54.696Z,6.27
2023-03-19T11:53:28.775Z,7.03
2023-03-19T11:56:06.357Z,6.67
2023-03-19T11:58:56.167Z,8.87
2023-03-19T12:01:40.086Z,8.93
2023-03-19T12:04:24.908Z,8.63
2023-03-19T12:07:02.467Z,6.10
2023-03-19T12:09:36.492Z,8.40
2023-03-19T12:12:15.135Z,7.83
2023-03-19T12:14:54.512Z,6.80
2023-03-19T12:17:37.695Z,9.00
2023-03-19T12:20:29.379Z,7.53
2023-03-19T12:23:16.509Z,8.27
2023-03-19T12:26:00.325Z,11.13
2023-03-19T12:28:34.105Z,8.63
2023-03-19T12:31:19.697Z,9.13
2023-03-19T12:33:55.493Z,11.60
2023-03-19T12:36:27.464Z,10.23
2023-03-19T12:39:01.085Z,10.10
2023-03-19T12:41:31.571Z,16.10
2023-03-19T12:44:05.422Z,9.63
2023-03-19T12:46:37.949Z,10.47
2023-03-19T12:49:10.672Z,10.90
2023-03-19T12:51:41.977Z,8.97
2023-03-19T12:54:14.682Z,11.77
2023-03-19T12:56:48.995Z,11.33
2023-03-19T12:59:28.004Z,12.20
2023-03-19T13:02:00.952Z,11.53
2023-03-19T13:04:33.022Z,9.77
2023-03-19T13:07:05.737Z,10.47
2023-03-19T13:09:40.650Z,10.17
2023-03-19T13:12:13.339Z,13.63
2023-03-19T13:14:54.681Z,10.50
2023-03-19T13:17:28.225Z,11.27
2023-03-19T13:19:57.128Z,16.43
2023-03-19T13:22:28.492Z,10.97
2023-03-19T13:24:57.745Z,13.00
2023-03-19T13:27:30.828Z,11.90
2023-03-19T13:30:17.853Z,11.00
2023-03-19T13:32:49.592Z,32.47
2023-03-19T13:35:38.783Z,16.53
2023-03-19T13:38:20.003Z,13.73
2023-03-19T13:40:50.809Z,13.03
2023-03-19T13:43:28.325Z,12.23
2023-03-19T13:46:05.921Z,10.47
2023-03-19T13:48:39.069Z,11.70
2023-03-19T13:51:26.784Z,10.37
2023-03-19T13:53:55.872Z,10.27
2023-03-19T13:56:30.119Z,11.70
2023-03-19T13:59:23.876Z,11.67
2023-03-19T14:01:53.556Z,11.03
2023-03-19T14:04:27.930Z,10.90
2023-03-19T14:06:59.360Z,8.80
2023-03-19T14:09:47.885Z,10.17
2023-03-19T14:12:38.066Z,8.73
2023-03-19T14:15:18.176Z,8.97
2023-03-19T14:17:57.661Z,9.83
2023-03-19T14:20:35.515Z,10.20
2023-03-19T14:23:23.688Z,10.00
2023-03-19T14:26:06.568Z,10.13
2023-03-19T14:28:47.301Z,9.60
2023-03-19T14:31:27.911Z,10.60
2023-03-19T14:34:03.675Z,9.80
2023-03-19T14:36:32.840Z,9.93
2023-03-19T14:39:05.099Z,10.80
2023-03-19T14:41:38.055Z,10.73
2023-03-19T14:44:51.445Z,10.50
2023-03-19T14:47:35.252Z,9.13
2023-03-19T14:50:57.118Z,10.70
2023-03-19T14:53:36.494Z,10.63
2023-03-19T14:56:12.693Z,10.47
2023-03-19T14:58:49.992Z,13.53
2023-03-19T15:01:19.214Z,14.87
2023-03-19T15:03:47.743Z,16.70
2023-03-19T15:06:16.664Z,14.60
2023-03-19T15:08:46.310Z,12.30
2023-03-19T15:11:41.129Z,10.53
2023-03-19T15:14:39.179Z,10.77
2023-03-19T15:17:16.296Z,10.53
2023-03-19T15:19:44.984Z,10.53
2023-03-19T15:22:15.195Z,10.10
2023-03-19T15:24:44.859Z,9.90
2023-03-19T15:27:24.402Z,10.37
2023-03-19T15:29:53.700Z,9.20
2023-03-19T15:32:52.312Z,10.20
2023-03-19T15:35:28.558Z,11.20
2023-03-19T15:38:00.774Z,10.80
2023-03-19T15:40:32.742Z,11.27
2023-03-19T15:43:03.509Z,11.37
2023-03-19T15:45:34.856Z,10.70
2023-03-19T15:48:06.905Z,12.30
2023-03-19T15:50:37.966Z,13.67
2023-03-19T15:53:11.890Z,16.50
2023-03-19T15:55:41.924Z,17.27
2023-03-19T15:58:13.294Z,15.37
2023-03-19T16:00:42.800Z,12.80
2023-03-19T16:03:17.856Z,11.83
2023-03-19T16:05:46.040Z,21.00
2023-03-19T16:08:21.009Z,23.77
2023-03-19T16:10:51.098Z,18.07
2023-03-19T16:13:27.159Z,16.47
2023-03-19T16:15:58.275Z,14.73
2023-03-19T16:18:28.272Z,13.13
2023-03-19T16:21:09.840Z,13.40
2023-03-19T16:23:41.765Z,14.63
2023-03-19T16:26:22.109Z,11.90
2023-03-19T16:29:09.573Z,11.23
2023-03-19T16:31:46.008Z,11.70
2023-03-19T16:34:31.885Z,10.43
2023-03-19T16:37:00.683Z,12.20
2023-03-19T16:39:35.027Z,11.73
2023-03-19T16:42:28.246Z,12.07
2023-03-19T16:44:57.426Z,12.00
2023-03-19T16:47:25.607Z,11.57
2023-03-19T16:49:53.799Z,12.70
2023-03-19T16:52:25.483Z,12.80
2023-03-19T16:54:55.200Z,12.83
2023-03-19T16:57:24.991Z,12.03
2023-03-19T16:59:53.359Z,12.33
2023-03-19T17:02:21.531Z,11.87
2023-03-19T17:04:49.791Z,12.17
2023-03-19T17:07:17.952Z,11.97
2023-03-19T17:09:46.248Z,14.47
2023-03-19T17:12:17.435Z,13.23
2023-03-19T17:14:54.163Z,13.60
2023-03-19T17:17:22.629Z,14.77
2023-03-19T17:19:51.574Z,15.77
2023-03-19T17:22:19.831Z,18.97
2023-03-19T17:24:48.476Z,17.67
2023-03-19T17:27:16.806Z,24.83
2023-03-19T17:29:46.382Z,28.60
2023-03-19T17:32:19.513Z,26.07
2023-03-19T17:34:48.513Z,19.80
2023-03-19T17:37:16.718Z,15.83
2023-03-19T17:39:45.885Z,15.27
2023-03-19T17:42:24.473Z,16.30
2023-03-19T17:44:56.787Z,15.87
2023-03-19T17:47:25.048Z,15.77
2023-03-19T17:49:53.221Z,15.17
2023-03-19T17:52:23.441Z,27.40
2023-03-19T17:54:51.605Z,60.03
2023-03-19T17:57:19.830Z,22.80
2023-03-19T17:59:47.936Z,15.37
2023-03-19T18:02:25.997Z,14.43
2023-03-19T18:04:54.478Z,13.27
2023-03-19T18:07:22.696Z,14.17
2023-03-19T18:09:50.964Z,21.47
2023-03-19T18:12:19.139Z,15.13
2023-03-19T18:14:47.402Z,12.67
2023-03-19T18:17:17.791Z,11.50
2023-03-19T18:19:50.743Z,10.53
2023-03-19T18:22:21.199Z,11.43
2023-03-19T18:24:49.368Z,11.93
2023-03-19T18:27:17.643Z,12.37
2023-03-19T18:29:45.887Z,12.27
2023-03-19T18:32:17.662Z,12.37
2023-03-19T18:34:47.248Z,19.30
2023-03-19T18:37:18.162Z,50.33
2023-03-19T18:39:46.942Z,38.73
2023-03-19T18:42:15.743Z,43.17
2023-03-19T18:44:44.456Z,24.97
2023-03-19T18:47:15.802Z,15.93
2023-03-19T18:49:44.754Z,13.93
2023-03-19T18:52:19.346Z,15.73
2023-03-19T18:54:47.966Z,16.30
2023-03-19T18:57:17.348Z,14.63
2023-03-19T18:59:45.815Z,12.63
2023-03-19T19:02:25.181Z,11.67
2023-03-19T19:04:53.406Z,11.53
2023-03-19T19:07:22.954Z,31.10
2023-03-19T19:09:51.159Z,14.87
2023-03-19T19:12:19.585Z,12.23
2023-03-19T19:14:47.952Z,11.77
2023-03-19T19:17:18.551Z,12.23
2023-03-19T19:19:47.016Z,13.33
2023-03-19T19:22:16.924Z,13.20
2023-03-19T19:24:46.594Z,14.87
2023-03-19T19:27:18.238Z,16.80
2023-03-19T19:29:47.477Z,12.43
2023-03-19T19:32:20.789Z,11.10
2023-03-19T19:34:48.933Z,13.50
2023-03-19T19:37:18.932Z,12.23
2023-03-19T19:39:48.554Z,11.77
2023-03-19T19:42:19.541Z,11.40
2023-03-19T19:44:52.747Z,11.63
2023-03-19T19:47:20.929Z,12.00
2023-03-19T19:49:49.169Z,12.77
2023-03-19T19:52:19.132Z,12.93
2023-03-19T19:54:48.845Z,13.50
2023-03-19T19:57:22.906Z,12.87
2023-03-19T19:59:52.664Z,12.47
2023-03-19T20:02:22.585Z,12.57
2023-03-19T20:04:51.229Z,12.90
2023-03-19T20:07:19.478Z,12.70
2023-03-19T20:09:49.146Z,13.27
2023-03-19T20:12:21.881Z,13.07
2023-03-19T20:14:50.728Z,13.83
2023-03-19T20:17:20.968Z,13.10
2023-03-19T20:19:49.467Z,12.20
2023-03-19T20:22:17.803Z,13.00
2023-03-19T20:24:49.541Z,12.47
2023-03-19T20:27:24.340Z,13.20
2023-03-19T20:29:53.735Z,13.30
2023-03-19T20:32:32.808Z,13.20
2023-03-19T20:35:01.550Z,13.27
2023-03-19T20:37:30.209Z,13.63
2023-03-19T20:39:58.486Z,13.17
2023-03-19T20:42:30.347Z,13.57
2023-03-19T20:45:01.507Z,14.20
2023-03-19T20:47:32.959Z,13.73
2023-03-19T20:50:02.070Z,14.33
2023-03-19T20:52:31.172Z,14.40
2023-03-19T20:54:59.407Z,15.07
2023-03-19T20:57:30.891Z,14.53
2023-03-19T21:00:03.587Z,14.73
2023-03-19T21:02:31.913Z,14.67
2023-03-19T21:05:00.147Z,13.00
2023-03-19T21:07:33.789Z,13.13
2023-03-19T21:10:21.099Z,14.10
2023-03-19T21:12:50.907Z,12.90
2023-03-19T21:15:19.254Z,13.03
2023-03-19T21:17:47.674Z,12.93
2023-03-19T21:20:20.529Z,13.30
2023-03-19T21:22:52.851Z,12.53
2023-03-19T21:25:24.481Z,12.23
2023-03-19T21:27:56.353Z,14.37
2023-03-19T21:30:24.901Z,14.73
2023-03-19T21:32:53.959Z,13.77
2023-03-19T21:35:24.342Z,10.53
2023-03-19T21:37:52.966Z,10.13
2023-03-19T21:40:23.437Z,9.53
2023-03-19T21:42:56.953Z,8.70
2023-03-19T21:45:28.992Z,9.50
2023-03-19T21:48:03.205Z,9.03
2023-03-19T21:50:31.847Z,9.03
2023-03-19T21:53:01.693Z,8.67
2023-03-19T21:55:30.121Z,7.90
2023-03-19T21:57:59.900Z,7.80
2023-03-19T22:00:28.189Z,8.37
2023-03-19T22:02:56.878Z,8.13
2023-03-19T22:05:27.294Z,7.87
2023-03-19T22:07:56.163Z,8.20
2023-03-19T22:10:28.604Z,8.23
2023-03-19T22:12:56.852Z,8.20
2023-03-19T22:15:34.922Z,11.70
2023-03-19T22:18:04.305Z,10.87
2023-03-19T22:20:32.741Z,10.90
2023-03-19T22:23:00.938Z,12.53
2023-03-19T22:25:33.309Z,14.03
2023-03-19T22:28:03.614Z,15.90
2023-03-19T22:30:37.037Z,18.90
2023-03-19T22:33:14.456Z,19.30
2023-03-19T22:35:43.367Z,20.07
2023-03-19T22:38:11.959Z,18.57
2023-03-19T22:40:40.789Z,18.93
2023-03-19T22:43:19.698Z,17.80
2023-03-19T22:45:54.202Z,18.37
2023-03-19T22:48:23.097Z,17.67
2023-03-19T22:50:51.341Z,17.47
2023-03-19T22:53:26.125Z,18.93
2023-03-19T22:55:54.416Z,18.97
2023-03-19T22:58:22.677Z,19.37
2023-03-19T23:00:52.642Z,18.73
2023-03-19T23:03:23.161Z,19.33
2023-03-19T23:05:56.094Z,18.60
2023-03-19T23:08:24.487Z,20.17
2023-03-19T23:10:53.503Z,19.57
2023-03-19T23:13:23.087Z,20.67
2023-03-19T23:15:56.715Z,17.90
2023-03-19T23:18:30.018Z,18.17
2023-03-19T23:20:58.816Z,18.40
2023-03-19T23:23:27.164Z,17.97
2023-03-19T23:25:56.083Z,17.20
2023-03-19T23:28:27.309Z,19.30
2023-03-19T23:30:58.561Z,20.43
2023-03-19T23:33:27.107Z,17.17
2023-03-19T23:35:55.369Z,17.10
2023-03-19T23:38:23.979Z,16.40
2023-03-19T23:40:53.980Z,16.10
2023-03-19T23:43:24.804Z,17.17
2023-03-19T23:45:55.138Z,17.53
2023-03-19T23:48:26.971Z,15.97
2023-03-19T23:50:55.176Z,17.13
2023-03-19T23:53:25.847Z,17.37
2023-03-19T23:55:57.560Z,16.03
2023-03-19T23:58:28.081Z,16.27
